sensor_id;sensor_type;location;lat;lon;timestamp;pressure;altitude;pressure_sealevel;temperature;humidity
59829;BME280;45708;51.848;107.620;2022-08-19T00:02:58;94315.22;;;17.10;49.94
59829;BME280;45708;51.848;107.620;2022-08-19T00:07:59;94314.94;;;16.67;51.20
59829;BME280;45708;51.848;107.620;2022-08-19T00:13:00;94298.66;;;20.01;44.63
59829;BME280;45708;51.848;107.620;2022-08-19T00:18:01;94281.75;;;21.64;40.96
59829;BME280;45708;51.848;107.620;2022-08-19T00:23:02;94286.75;;;19.48;45.07
59829;BME280;45708;51.848;107.620;2022-08-19T00:28:03;94306.56;;;18.34;47.47
59829;BME280;45708;51.848;107.620;2022-08-19T00:33:04;94295.63;;;17.24;48.82
59829;BME280;45708;51.848;107.620;2022-08-19T00:38:05;94294.94;;;16.05;50.42
59829;BME280;45708;51.848;107.620;2022-08-19T00:43:13;94296.63;;;15.60;50.89
59829;BME280;45708;51.848;107.620;2022-08-19T00:48:19;94279.63;;;18.06;46.04
59829;BME280;45708;51.848;107.620;2022-08-19T00:53:24;94286.97;;;18.38;44.63
59829;BME280;45708;51.848;107.620;2022-08-19T00:58:29;94287.84;;;18.76;44.09
59829;BME280;45708;51.848;107.620;2022-08-19T01:03:30;94278.13;;;22.00;38.30
59829;BME280;45708;51.848;107.620;2022-08-19T01:08:31;94270.81;;;23.40;35.71
59829;BME280;45708;51.848;107.620;2022-08-19T01:13:33;94269.19;;;23.74;34.18
59829;BME280;45708;51.848;107.620;2022-08-19T01:18:41;94268.50;;;23.94;34.03
59829;BME280;45708;51.848;107.620;2022-08-19T01:23:43;94271.00;;;23.99;33.06
59829;BME280;45708;51.848;107.620;2022-08-19T01:28:46;94269.28;;;24.71;32.29
59829;BME280;45708;51.848;107.620;2022-08-19T01:33:49;94277.13;;;23.61;33.14
59829;BME280;45708;51.848;107.620;2022-08-19T01:38:51;94278.88;;;23.40;32.69
59829;BME280;45708;51.848;107.620;2022-08-19T01:43:53;94261.56;;;24.81;31.38
59829;BME280;45708;51.848;107.620;2022-08-19T01:48:54;94255.88;;;25.25;30.36
59829;BME280;45708;51.848;107.620;2022-08-19T01:53:55;94245.31;;;24.69;30.85
59829;BME280;45708;51.848;107.620;2022-08-19T01:59:02;94243.84;;;25.34;29.91
59829;BME280;45708;51.848;107.620;2022-08-19T02:04:05;94244.59;;;25.02;30.20
59829;BME280;45708;51.848;107.620;2022-08-19T02:09:07;94249.84;;;23.54;31.96
59829;BME280;45708;51.848;107.620;2022-08-19T02:14:08;94257.84;;;21.18;35.21
59829;BME280;45708;51.848;107.620;2022-08-19T02:19:12;94252.78;;;19.29;37.99
59829;BME280;45708;51.848;107.620;2022-08-19T02:24:13;94227.44;;;18.33;39.46
59829;BME280;45708;51.848;107.620;2022-08-19T02:29:14;94249.63;;;18.33;39.30
59829;BME280;45708;51.848;107.620;2022-08-19T02:34:16;94239.06;;;18.42;39.35
59829;BME280;45708;51.848;107.620;2022-08-19T02:39:17;94250.41;;;17.91;40.61
59829;BME280;45708;51.848;107.620;2022-08-19T02:44:18;94244.13;;;17.19;41.75
59829;BME280;45708;51.848;107.620;2022-08-19T02:49:22;94243.75;;;17.01;42.64
59829;BME280;45708;51.848;107.620;2022-08-19T02:54:22;94239.25;;;17.55;41.58
59829;BME280;45708;51.848;107.620;2022-08-19T02:59:23;94234.94;;;17.88;40.70
59829;BME280;45708;51.848;107.620;2022-08-19T03:04:24;94228.00;;;17.87;40.83
59829;BME280;45708;51.848;107.620;2022-08-19T03:09:25;94227.19;;;18.72;39.52
59829;BME280;45708;51.848;107.620;2022-08-19T03:14:26;94214.50;;;18.40;39.90
59829;BME280;45708;51.848;107.620;2022-08-19T03:19:27;94223.31;;;18.59;39.81
59829;BME280;45708;51.848;107.620;2022-08-19T03:24:28;94208.00;;;19.16;38.57
59829;BME280;45708;51.848;107.620;2022-08-19T03:29:29;94211.03;;;19.42;37.97
59829;BME280;45708;51.848;107.620;2022-08-19T03:34:31;94212.56;;;19.62;37.64
59829;BME280;45708;51.848;107.620;2022-08-19T03:39:33;94196.41;;;19.21;37.60
59829;BME280;45708;51.848;107.620;2022-08-19T03:44:34;94185.00;;;19.89;36.48
59829;BME280;45708;51.848;107.620;2022-08-19T03:49:35;94172.75;;;20.24;36.19
59829;BME280;45708;51.848;107.620;2022-08-19T03:54:37;94176.66;;;19.90;36.32
59829;BME280;45708;51.848;107.620;2022-08-19T03:59:38;94168.69;;;19.30;37.53
59829;BME280;45708;51.848;107.620;2022-08-19T04:04:41;94169.13;;;19.05;37.52
59829;BME280;45708;51.848;107.620;2022-08-19T04:09:43;94160.81;;;18.74;38.49
59829;BME280;45708;51.848;107.620;2022-08-19T04:14:44;94168.81;;;18.36;38.92
59829;BME280;45708;51.848;107.620;2022-08-19T04:19:44;94160.50;;;18.38;39.05
59829;BME280;45708;51.848;107.620;2022-08-19T04:24:45;94151.59;;;18.61;39.34
59829;BME280;45708;51.848;107.620;2022-08-19T04:29:46;94147.16;;;19.35;38.77
59829;BME280;45708;51.848;107.620;2022-08-19T04:34:47;94154.53;;;18.97;38.72
59829;BME280;45708;51.848;107.620;2022-08-19T04:39:48;94150.47;;;18.67;39.54
59829;BME280;45708;51.848;107.620;2022-08-19T04:44:49;94150.25;;;18.45;39.65
59829;BME280;45708;51.848;107.620;2022-08-19T04:49:50;94158.91;;;18.18;40.43
59829;BME280;45708;51.848;107.620;2022-08-19T04:54:50;94142.44;;;18.48;40.04
59829;BME280;45708;51.848;107.620;2022-08-19T04:59:56;94149.31;;;18.36;40.61
59829;BME280;45708;51.848;107.620;2022-08-19T05:04:58;94136.31;;;18.10;41.34
59829;BME280;45708;51.848;107.620;2022-08-19T05:09:59;94145.84;;;18.54;40.89
59829;BME280;45708;51.848;107.620;2022-08-19T05:15:01;94150.84;;;18.23;41.65
59829;BME280;45708;51.848;107.620;2022-08-19T05:20:04;94134.31;;;17.54;42.70
59829;BME280;45708;51.848;107.620;2022-08-19T05:25:15;94141.25;;;17.31;43.70
59829;BME280;45708;51.848;107.620;2022-08-19T05:30:17;94143.38;;;17.34;44.38
59829;BME280;45708;51.848;107.620;2022-08-19T05:35:18;94145.81;;;17.31;44.82
59829;BME280;45708;51.848;107.620;2022-08-19T05:40:19;94146.00;;;17.63;44.38
59829;BME280;45708;51.848;107.620;2022-08-19T05:45:19;94146.19;;;17.91;43.59
59829;BME280;45708;51.848;107.620;2022-08-19T05:50:21;94149.09;;;18.13;43.11
59829;BME280;45708;51.848;107.620;2022-08-19T05:55:22;94141.78;;;18.00;43.34
59829;BME280;45708;51.848;107.620;2022-08-19T06:00:23;94132.56;;;18.11;43.50
59829;BME280;45708;51.848;107.620;2022-08-19T06:05:24;94137.88;;;17.92;43.57
59829;BME280;45708;51.848;107.620;2022-08-19T06:10:27;94114.44;;;17.66;44.11
59829;BME280;45708;51.848;107.620;2022-08-19T06:15:28;94110.38;;;17.25;44.06
59829;BME280;45708;51.848;107.620;2022-08-19T06:20:29;94117.09;;;17.23;44.18
59829;BME280;45708;51.848;107.620;2022-08-19T06:25:30;94111.75;;;17.23;44.25
59829;BME280;45708;51.848;107.620;2022-08-19T06:30:31;94102.63;;;17.72;43.28
59829;BME280;45708;51.848;107.620;2022-08-19T06:35:32;94105.47;;;17.99;42.14
59829;BME280;45708;51.848;107.620;2022-08-19T06:40:33;94096.44;;;18.14;41.54
59829;BME280;45708;51.848;107.620;2022-08-19T06:45:35;94086.16;;;18.40;41.30
59829;BME280;45708;51.848;107.620;2022-08-19T06:50:38;94084.16;;;18.97;40.13
59829;BME280;45708;51.848;107.620;2022-08-19T06:55:38;94081.03;;;19.22;39.30
59829;BME280;45708;51.848;107.620;2022-08-19T07:00:39;94066.91;;;19.17;38.91
59829;BME280;45708;51.848;107.620;2022-08-19T07:05:41;94074.13;;;18.56;39.59
59829;BME280;45708;51.848;107.620;2022-08-19T07:10:45;94073.28;;;18.42;40.15
59829;BME280;45708;51.848;107.620;2022-08-19T07:15:46;94075.59;;;18.81;39.65
59829;BME280;45708;51.848;107.620;2022-08-19T07:20:47;94080.44;;;18.46;40.19
59829;BME280;45708;51.848;107.620;2022-08-19T07:25:48;94071.53;;;18.51;40.11
59829;BME280;45708;51.848;107.620;2022-08-19T07:30:49;94059.97;;;19.02;39.56
59829;BME280;45708;51.848;107.620;2022-08-19T07:35:49;94063.00;;;18.68;39.84
59829;BME280;45708;51.848;107.620;2022-08-19T07:40:51;94051.41;;;18.21;40.17
59829;BME280;45708;51.848;107.620;2022-08-19T07:45:53;94056.56;;;17.80;40.97
59829;BME280;45708;51.848;107.620;2022-08-19T07:50:57;94059.25;;;17.99;40.60
59829;BME280;45708;51.848;107.620;2022-08-19T07:55:58;94053.91;;;17.80;41.02
59829;BME280;45708;51.848;107.620;2022-08-19T08:00:59;94054.41;;;17.82;41.08
59829;BME280;45708;51.848;107.620;2022-08-19T08:06:00;94061.03;;;17.66;41.22
59829;BME280;45708;51.848;107.620;2022-08-19T08:11:01;94060.47;;;17.69;41.53
59829;BME280;45708;51.848;107.620;2022-08-19T08:16:02;94050.00;;;17.91;41.01
59829;BME280;45708;51.848;107.620;2022-08-19T08:21:03;94045.97;;;18.45;40.09
59829;BME280;45708;51.848;107.620;2022-08-19T08:26:04;94054.31;;;18.57;39.24
59829;BME280;45708;51.848;107.620;2022-08-19T08:31:05;93997.75;;;18.17;39.55
59829;BME280;45708;51.848;107.620;2022-08-19T08:36:10;94048.03;;;18.15;40.03
59829;BME280;45708;51.848;107.620;2022-08-19T08:46:38;94034.38;;;18.68;39.16
59829;BME280;45708;51.848;107.620;2022-08-19T08:51:46;94039.13;;;18.71;38.39
59829;BME280;45708;51.848;107.620;2022-08-19T08:56:49;94037.34;;;18.67;38.89
59829;BME280;45708;51.848;107.620;2022-08-19T09:01:54;94039.81;;;18.77;38.43
59829;BME280;45708;51.848;107.620;2022-08-19T09:17:39;94016.34;;;18.74;37.61
59829;BME280;45708;51.848;107.620;2022-08-19T09:22:41;94031.09;;;18.39;38.00
59829;BME280;45708;51.848;107.620;2022-08-19T09:27:43;94026.03;;;18.05;38.36
59829;BME280;45708;51.848;107.620;2022-08-19T09:32:46;94036.94;;;18.08;38.44
59829;BME280;45708;51.848;107.620;2022-08-19T09:37:47;94037.25;;;18.20;38.39
59829;BME280;45708;51.848;107.620;2022-08-19T09:42:48;94042.22;;;17.94;39.67
59829;BME280;45708;51.848;107.620;2022-08-19T09:47:51;94038.69;;;17.38;41.39
59829;BME280;45708;51.848;107.620;2022-08-19T09:52:52;94047.47;;;17.38;41.67
59829;BME280;45708;51.848;107.620;2022-08-19T09:57:53;94047.72;;;17.60;41.17
59829;BME280;45708;51.848;107.620;2022-08-19T10:02:54;94045.75;;;17.90;40.43
59829;BME280;45708;51.848;107.620;2022-08-19T10:07:55;94029.56;;;18.00;40.03
59829;BME280;45708;51.848;107.620;2022-08-19T10:12:56;94038.94;;;18.16;39.36
59829;BME280;45708;51.848;107.620;2022-08-19T10:17:57;94041.13;;;18.47;38.53
59829;BME280;45708;51.848;107.620;2022-08-19T10:22:58;94027.22;;;18.64;37.64
59829;BME280;45708;51.848;107.620;2022-08-19T10:27:59;94031.91;;;18.53;37.12
59829;BME280;45708;51.848;107.620;2022-08-19T10:32:59;94039.19;;;18.34;36.98
59829;BME280;45708;51.848;107.620;2022-08-19T10:38:00;94042.88;;;18.05;37.23
59829;BME280;45708;51.848;107.620;2022-08-19T10:43:01;94035.78;;;17.77;37.56
59829;BME280;45708;51.848;107.620;2022-08-19T10:48:03;94042.97;;;17.57;37.48
59829;BME280;45708;51.848;107.620;2022-08-19T10:53:06;94041.06;;;17.39;37.81
59829;BME280;45708;51.848;107.620;2022-08-19T10:58:14;94045.06;;;17.18;37.90
59829;BME280;45708;51.848;107.620;2022-08-19T11:03:15;94044.00;;;16.95;38.69
59829;BME280;45708;51.848;107.620;2022-08-19T11:08:16;94045.00;;;16.75;38.68
59829;BME280;45708;51.848;107.620;2022-08-19T11:13:17;94034.44;;;16.60;38.69
59829;BME280;45708;51.848;107.620;2022-08-19T11:18:17;94034.00;;;16.53;39.25
59829;BME280;45708;51.848;107.620;2022-08-19T11:23:19;94029.81;;;16.41;39.54
59829;BME280;45708;51.848;107.620;2022-08-19T11:28:19;94029.63;;;16.33;40.33
59829;BME280;45708;51.848;107.620;2022-08-19T11:33:20;94032.66;;;16.21;40.57
59829;BME280;45708;51.848;107.620;2022-08-19T11:38:21;94031.16;;;16.10;40.99
59829;BME280;45708;51.848;107.620;2022-08-19T11:43:22;94029.72;;;15.89;41.53
59829;BME280;45708;51.848;107.620;2022-08-19T11:48:24;94019.78;;;15.55;42.37
59829;BME280;45708;51.848;107.620;2022-08-19T11:53:25;94030.06;;;15.28;43.43
59829;BME280;45708;51.848;107.620;2022-08-19T11:58:26;94032.84;;;14.92;43.90
59829;BME280;45708;51.848;107.620;2022-08-19T12:03:27;94030.81;;;14.64;44.59
59829;BME280;45708;51.848;107.620;2022-08-19T12:08:28;94039.63;;;14.49;44.91
59829;BME280;45708;51.848;107.620;2022-08-19T12:13:30;94045.16;;;14.37;45.39
59829;BME280;45708;51.848;107.620;2022-08-19T12:18:31;94042.00;;;14.15;45.64
59829;BME280;45708;51.848;107.620;2022-08-19T12:23:31;94049.44;;;13.92;46.08
59829;BME280;45708;51.848;107.620;2022-08-19T12:28:32;94051.53;;;13.80;46.36
59829;BME280;45708;51.848;107.620;2022-08-19T12:33:33;94064.28;;;13.73;46.55
59829;BME280;45708;51.848;107.620;2022-08-19T12:38:35;94065.31;;;13.62;46.76
59829;BME280;45708;51.848;107.620;2022-08-19T12:43:36;94049.63;;;13.60;46.45
59829;BME280;45708;51.848;107.620;2022-08-19T12:48:38;94065.88;;;13.74;46.31
59829;BME280;45708;51.848;107.620;2022-08-19T12:53:39;94063.22;;;13.74;46.42
59829;BME280;45708;51.848;107.620;2022-08-19T12:58:42;94063.75;;;13.76;46.41
59829;BME280;45708;51.848;107.620;2022-08-19T13:03:45;94063.75;;;13.76;46.24
59829;BME280;45708;51.848;107.620;2022-08-19T13:08:48;94064.31;;;13.88;46.09
59829;BME280;45708;51.848;107.620;2022-08-19T13:13:49;94068.81;;;13.93;45.90
59829;BME280;45708;51.848;107.620;2022-08-19T13:18:52;94066.94;;;13.98;46.02
59829;BME280;45708;51.848;107.620;2022-08-19T13:23:53;94062.16;;;13.95;46.01
59829;BME280;45708;51.848;107.620;2022-08-19T13:28:54;94063.78;;;13.91;45.89
59829;BME280;45708;51.848;107.620;2022-08-19T13:33:55;94072.25;;;13.88;45.98
59829;BME280;45708;51.848;107.620;2022-08-19T13:38:56;94075.97;;;13.87;45.99
59829;BME280;45708;51.848;107.620;2022-08-19T13:43:57;94065.38;;;13.87;45.92
59829;BME280;45708;51.848;107.620;2022-08-19T13:48:58;94066.44;;;13.86;45.92
59829;BME280;45708;51.848;107.620;2022-08-19T13:53:59;94072.53;;;13.82;46.00
59829;BME280;45708;51.848;107.620;2022-08-19T13:58:59;94065.81;;;13.54;46.28
59829;BME280;45708;51.848;107.620;2022-08-19T14:04:01;94076.38;;;13.33;47.14
59829;BME280;45708;51.848;107.620;2022-08-19T14:09:03;94069.03;;;12.98;48.12
59829;BME280;45708;51.848;107.620;2022-08-19T14:14:04;94084.28;;;12.71;49.18
59829;BME280;45708;51.848;107.620;2022-08-19T14:19:04;94092.25;;;12.39;50.27
59829;BME280;45708;51.848;107.620;2022-08-19T14:24:05;94088.78;;;12.01;50.77
59829;BME280;45708;51.848;107.620;2022-08-19T14:29:06;94103.22;;;11.83;51.20
59829;BME280;45708;51.848;107.620;2022-08-19T14:34:07;94097.88;;;11.56;51.88
59829;BME280;45708;51.848;107.620;2022-08-19T14:39:08;94105.47;;;11.26;52.12
59829;BME280;45708;51.848;107.620;2022-08-19T14:44:09;94111.72;;;11.20;53.14
59829;BME280;45708;51.848;107.620;2022-08-19T14:49:10;94112.66;;;11.09;53.04
59829;BME280;45708;51.848;107.620;2022-08-19T14:54:11;94109.06;;;10.98;53.38
59829;BME280;45708;51.848;107.620;2022-08-19T14:59:12;94093.91;;;10.88;54.39
59829;BME280;45708;51.848;107.620;2022-08-19T15:04:12;94096.34;;;10.73;54.82
59829;BME280;45708;51.848;107.620;2022-08-19T15:09:13;94095.84;;;10.76;55.09
59829;BME280;45708;51.848;107.620;2022-08-19T15:14:15;94080.81;;;10.60;55.73
59829;BME280;45708;51.848;107.620;2022-08-19T15:19:16;94105.63;;;10.59;55.94
59829;BME280;45708;51.848;107.620;2022-08-19T15:24:17;94098.75;;;10.58;56.06
59829;BME280;45708;51.848;107.620;2022-08-19T15:29:18;94102.59;;;10.67;56.78
59829;BME280;45708;51.848;107.620;2022-08-19T15:34:19;94104.31;;;10.40;56.44
59829;BME280;45708;51.848;107.620;2022-08-19T15:39:20;94094.28;;;10.08;57.10
59829;BME280;45708;51.848;107.620;2022-08-19T15:44:21;94112.34;;;9.99;57.52
59829;BME280;45708;51.848;107.620;2022-08-19T15:49:22;94109.13;;;9.81;58.22
59829;BME280;45708;51.848;107.620;2022-08-19T15:54:23;94110.25;;;9.68;58.92
59829;BME280;45708;51.848;107.620;2022-08-19T15:59:24;94104.91;;;9.51;59.14
59829;BME280;45708;51.848;107.620;2022-08-19T16:04:25;94121.94;;;9.32;60.07
59829;BME280;45708;51.848;107.620;2022-08-19T16:09:28;94119.56;;;9.30;60.31
59829;BME280;45708;51.848;107.620;2022-08-19T16:14:32;94122.91;;;9.26;60.63
59829;BME280;45708;51.848;107.620;2022-08-19T16:19:33;94122.34;;;9.12;60.34
59829;BME280;45708;51.848;107.620;2022-08-19T16:24:33;94123.63;;;9.09;61.28
59829;BME280;45708;51.848;107.620;2022-08-19T16:29:34;94117.56;;;9.09;61.59
59829;BME280;45708;51.848;107.620;2022-08-19T16:34:37;94119.06;;;8.93;61.95
59829;BME280;45708;51.848;107.620;2022-08-19T16:39:38;94114.97;;;8.74;62.70
59829;BME280;45708;51.848;107.620;2022-08-19T16:44:42;94118.75;;;8.78;62.90
59829;BME280;45708;51.848;107.620;2022-08-19T16:49:44;94106.97;;;8.69;62.71
59829;BME280;45708;51.848;107.620;2022-08-19T16:54:46;94108.47;;;8.65;63.96
59829;BME280;45708;51.848;107.620;2022-08-19T16:59:47;94104.34;;;8.69;63.92
59829;BME280;45708;51.848;107.620;2022-08-19T17:04:49;94095.78;;;8.62;63.78
59829;BME280;45708;51.848;107.620;2022-08-19T17:09:50;94096.78;;;8.61;64.41
59829;BME280;45708;51.848;107.620;2022-08-19T17:14:51;94104.47;;;8.50;64.94
59829;BME280;45708;51.848;107.620;2022-08-19T17:19:52;94101.75;;;8.45;65.04
59829;BME280;45708;51.848;107.620;2022-08-19T17:24:53;94096.22;;;8.35;65.26
59829;BME280;45708;51.848;107.620;2022-08-19T17:29:54;94097.13;;;8.29;65.81
59829;BME280;45708;51.848;107.620;2022-08-19T17:34:55;94095.84;;;8.08;67.05
59829;BME280;45708;51.848;107.620;2022-08-19T17:39:55;94096.16;;;7.88;67.00
59829;BME280;45708;51.848;107.620;2022-08-19T17:44:56;94102.13;;;7.84;67.14
59829;BME280;45708;51.848;107.620;2022-08-19T17:49:57;94105.84;;;7.65;68.02
59829;BME280;45708;51.848;107.620;2022-08-19T17:54:59;94103.97;;;7.53;67.79
59829;BME280;45708;51.848;107.620;2022-08-19T17:59:59;94113.84;;;7.40;68.18
59829;BME280;45708;51.848;107.620;2022-08-19T18:05:03;94117.38;;;7.33;68.37
59829;BME280;45708;51.848;107.620;2022-08-19T18:10:05;94101.16;;;7.37;68.50
59829;BME280;45708;51.848;107.620;2022-08-19T18:15:07;94099.97;;;7.21;68.79
59829;BME280;45708;51.848;107.620;2022-08-19T18:20:10;94097.81;;;7.29;69.32
59829;BME280;45708;51.848;107.620;2022-08-19T18:30:14;94094.41;;;7.29;68.71
59829;BME280;45708;51.848;107.620;2022-08-19T18:35:22;94113.97;;;7.15;70.02
59829;BME280;45708;51.848;107.620;2022-08-19T18:40:26;94115.09;;;7.07;69.54
59829;BME280;45708;51.848;107.620;2022-08-19T18:45:28;94117.28;;;7.10;69.45
59829;BME280;45708;51.848;107.620;2022-08-19T18:50:29;94104.59;;;7.07;69.22
59829;BME280;45708;51.848;107.620;2022-08-19T18:55:30;94105.44;;;7.19;70.01
59829;BME280;45708;51.848;107.620;2022-08-19T19:00:31;94113.97;;;7.15;69.83
59829;BME280;45708;51.848;107.620;2022-08-19T19:05:31;94107.06;;;7.02;70.68
59829;BME280;45708;51.848;107.620;2022-08-19T19:10:32;94108.97;;;6.95;70.35
59829;BME280;45708;51.848;107.620;2022-08-19T19:15:33;94113.94;;;6.85;70.20
59829;BME280;45708;51.848;107.620;2022-08-19T19:20:34;94116.78;;;6.83;70.54
59829;BME280;45708;51.848;107.620;2022-08-19T19:25:36;94132.00;;;6.75;71.26
59829;BME280;45708;51.848;107.620;2022-08-19T19:30:37;94128.44;;;6.69;71.12
59829;BME280;45708;51.848;107.620;2022-08-19T19:35:38;94130.38;;;6.55;71.91
59829;BME280;45708;51.848;107.620;2022-08-19T19:40:39;94139.28;;;6.54;71.80
59829;BME280;45708;51.848;107.620;2022-08-19T19:45:40;94143.47;;;6.62;71.58
59829;BME280;45708;51.848;107.620;2022-08-19T19:50:44;94144.38;;;6.49;71.88
59829;BME280;45708;51.848;107.620;2022-08-19T19:55:45;94137.97;;;6.45;72.25
59829;BME280;45708;51.848;107.620;2022-08-19T20:00:46;94134.47;;;6.51;72.15
59829;BME280;45708;51.848;107.620;2022-08-19T20:05:48;94135.06;;;6.53;72.11
59829;BME280;45708;51.848;107.620;2022-08-19T20:10:48;94138.69;;;6.52;72.84
59829;BME280;45708;51.848;107.620;2022-08-19T20:15:49;94128.31;;;6.39;72.61
59829;BME280;45708;51.848;107.620;2022-08-19T20:20:50;94124.81;;;6.27;72.82
59829;BME280;45708;51.848;107.620;2022-08-19T20:25:52;94069.81;;;5.95;73.33
59829;BME280;45708;51.848;107.620;2022-08-19T20:30:53;94112.41;;;6.16;73.59
59829;BME280;45708;51.848;107.620;2022-08-19T20:35:53;94124.06;;;6.20;73.59
59829;BME280;45708;51.848;107.620;2022-08-19T20:40:54;94111.22;;;6.12;73.90
59829;BME280;45708;51.848;107.620;2022-08-19T20:45:55;94114.13;;;6.03;74.60
59829;BME280;45708;51.848;107.620;2022-08-19T20:50:56;94126.66;;;6.01;74.12
59829;BME280;45708;51.848;107.620;2022-08-19T20:55:57;94114.53;;;6.00;73.72
59829;BME280;45708;51.848;107.620;2022-08-19T21:01:00;94116.22;;;5.95;73.92
59829;BME280;45708;51.848;107.620;2022-08-19T21:06:02;94133.00;;;5.80;73.95
59829;BME280;45708;51.848;107.620;2022-08-19T21:11:04;94147.47;;;5.58;73.91
59829;BME280;45708;51.848;107.620;2022-08-19T21:16:05;94143.94;;;5.39;73.95
59829;BME280;45708;51.848;107.620;2022-08-19T21:21:06;94153.81;;;5.37;74.11
59829;BME280;45708;51.848;107.620;2022-08-19T21:26:06;94153.72;;;5.19;74.48
59829;BME280;45708;51.848;107.620;2022-08-19T21:31:08;94155.56;;;5.12;74.43
59829;BME280;45708;51.848;107.620;2022-08-19T21:36:09;94153.13;;;5.17;74.45
59829;BME280;45708;51.848;107.620;2022-08-19T21:41:10;94146.88;;;5.18;74.47
59829;BME280;45708;51.848;107.620;2022-08-19T21:46:11;94142.06;;;5.15;74.55
59829;BME280;45708;51.848;107.620;2022-08-19T21:51:12;94127.16;;;5.22;74.65
59829;BME280;45708;51.848;107.620;2022-08-19T21:56:12;94103.31;;;5.30;75.47
59829;BME280;45708;51.848;107.620;2022-08-19T22:01:13;94110.53;;;5.41;75.25
59829;BME280;45708;51.848;107.620;2022-08-19T22:06:14;94093.91;;;5.54;74.93
59829;BME280;45708;51.848;107.620;2022-08-19T22:11:15;94091.41;;;5.66;74.20
59829;BME280;45708;51.848;107.620;2022-08-19T22:16:16;94089.28;;;5.81;74.15
59829;BME280;45708;51.848;107.620;2022-08-19T22:21:18;94084.84;;;5.82;74.26
59829;BME280;45708;51.848;107.620;2022-08-19T22:26:19;94086.06;;;5.79;74.46
59829;BME280;45708;51.848;107.620;2022-08-19T22:31:20;94093.06;;;5.85;74.65
59829;BME280;45708;51.848;107.620;2022-08-19T22:36:21;94100.75;;;6.12;73.97
59829;BME280;45708;51.848;107.620;2022-08-19T22:41:22;94124.88;;;6.82;72.28
59829;BME280;45708;51.848;107.620;2022-08-19T22:46:22;94120.78;;;7.34;70.22
59829;BME280;45708;51.848;107.620;2022-08-19T22:51:23;94125.84;;;8.77;67.45
59829;BME280;45708;51.848;107.620;2022-08-19T22:56:24;94145.97;;;9.47;65.14
59829;BME280;45708;51.848;107.620;2022-08-19T23:01:25;94138.59;;;10.06;64.03
59829;BME280;45708;51.848;107.620;2022-08-19T23:06:27;94117.50;;;10.56;62.79
59829;BME280;45708;51.848;107.620;2022-08-19T23:11:28;94101.84;;;10.88;61.80
59829;BME280;45708;51.848;107.620;2022-08-19T23:16:28;94098.44;;;11.15;61.53
59829;BME280;45708;51.848;107.620;2022-08-19T23:21:29;94101.72;;;11.71;60.68
59829;BME280;45708;51.848;107.620;2022-08-19T23:26:30;94112.50;;;12.55;58.26
59829;BME280;45708;51.848;107.620;2022-08-19T23:31:31;94125.25;;;13.58;55.54
59829;BME280;45708;51.848;107.620;2022-08-19T23:36:32;94083.75;;;15.40;50.26
59829;BME280;45708;51.848;107.620;2022-08-19T23:41:33;94130.56;;;16.05;48.92
59829;BME280;45708;51.848;107.620;2022-08-19T23:46:34;94125.09;;;16.60;47.64
59829;BME280;45708;51.848;107.620;2022-08-19T23:51:34;94121.16;;;18.43;43.73
59829;BME280;45708;51.848;107.620;2022-08-19T23:56:35;94114.97;;;20.40;40.56
